Time;durP1;ratioP1;P1;durP2;ratioP2;P2;SDS_P1;SDS_P2;PMS_P1;PMS_P2;Temp;Humidity;BMP_temperature;BMP_pressure;BME280_temperature;BME280_humidity;BME280_pressure;Samples;Min_cycle;Max_cycle;Signal;HPM_P1;HPM_P2
2023/11/24 00:00:25;;;;;;;10.85;3.17;;;7.00;99.90;;;;;;7373770;19;20010;-60
2023/11/24 00:02:51;;;;;;;17.98;2.75;;;7.10;99.90;;;;;;7371964;19;20455;-60
2023/11/24 00:05:18;;;;;;;13.93;2.92;;;7.00;99.90;;;;;;7376192;19;20518;-63
2023/11/24 00:07:45;;;;;;;11.93;2.75;;;7.00;99.90;;;;;;7370251;19;20393;-63
2023/11/24 00:10:12;;;;;;;17.52;3.10;;;7.00;99.90;;;;;;7371801;19;20037;-64
2023/11/24 00:12:59;;;;;;;15.32;2.40;;;6.90;99.90;;;;;;7371492;19;20026;-63
2023/11/24 00:15:25;;;;;;;16.40;3.55;;;6.80;99.90;;;;;;7371322;19;20569;-63
2023/11/24 00:17:51;;;;;;;15.20;2.97;;;6.70;99.90;;;;;;7372197;19;20113;-63
2023/11/24 00:20:18;;;;;;;15.43;3.15;;;6.70;99.90;;;;;;7370303;19;20604;-65
2023/11/24 00:22:48;;;;;;;16.45;3.15;;;6.70;99.90;;;;;;7371465;19;20632;-63
2023/11/24 00:25:14;;;;;;;11.00;2.40;;;6.60;99.90;;;;;;7372897;19;20395;-63
2023/11/24 00:27:45;;;;;;;15.98;3.28;;;6.60;99.90;;;;;;7372777;19;20015;-63
2023/11/24 00:30:12;;;;;;;15.77;2.90;;;6.50;99.90;;;;;;7372240;19;20014;-63
2023/11/24 00:32:39;;;;;;;18.00;3.53;;;6.50;99.90;;;;;;7375481;19;20018;-62
2023/11/24 00:35:06;;;;;;;13.65;2.45;;;6.50;99.90;;;;;;7373499;19;20352;-63
2023/11/24 00:37:33;;;;;;;16.13;3.58;;;6.50;99.90;;;;;;7371580;19;20056;-60
2023/11/24 00:39:59;;;;;;;15.20;3.00;;;6.40;99.90;;;;;;7373824;19;20014;-60
2023/11/24 00:42:26;;;;;;;21.02;3.55;;;6.40;99.90;;;;;;7370839;19;20018;-59
2023/11/24 00:44:52;;;;;;;16.65;2.85;;;6.40;99.90;;;;;;7372991;19;20481;-60
2023/11/24 00:47:19;;;;;;;21.13;4.38;;;6.40;99.90;;;;;;7370214;19;20018;-60
2023/11/24 00:49:48;;;;;;;12.68;2.47;;;6.40;99.90;;;;;;7373760;19;20490;-59
2023/11/24 00:52:15;;;;;;;24.17;3.60;;;6.50;99.90;;;;;;7370874;19;20039;-59
2023/11/24 00:54:41;;;;;;;12.13;2.60;;;6.50;99.90;;;;;;7371326;19;20114;-60
2023/11/24 00:57:08;;;;;;;13.23;2.80;;;6.50;99.90;;;;;;7368491;19;20018;-59
2023/11/24 00:59:35;;;;;;;16.88;3.03;;;6.50;99.90;;;;;;7370834;19;20375;-60
2023/11/24 01:02:02;;;;;;;21.27;3.85;;;6.60;99.90;;;;;;7371314;19;20033;-60
2023/11/24 01:04:29;;;;;;;20.67;3.28;;;6.60;99.90;;;;;;7372372;19;20023;-63
2023/11/24 01:06:56;;;;;;;17.52;3.03;;;6.70;99.90;;;;;;7372142;19;20428;-63
2023/11/24 01:09:24;;;;;;;18.13;3.10;;;6.70;99.90;;;;;;7369063;19;20039;-63
2023/11/24 01:11:51;;;;;;;14.50;3.08;;;6.80;99.90;;;;;;7371772;19;20481;-65
2023/11/24 01:14:17;;;;;;;17.35;3.33;;;6.80;99.90;;;;;;7370679;19;20022;-63
2023/11/24 01:16:44;;;;;;;17.00;3.90;;;6.80;99.90;;;;;;7371257;19;20022;-64
2023/11/24 01:19:10;;;;;;;12.75;2.65;;;6.70;99.90;;;;;;7373100;19;20025;-63
2023/11/24 01:21:37;;;;;;;16.20;3.42;;;6.60;99.90;;;;;;7372382;19;20023;-63
2023/11/24 01:24:03;;;;;;;19.92;3.22;;;6.50;99.90;;;;;;7374305;19;20050;-63
2023/11/24 01:26:30;;;;;;;15.95;2.83;;;6.40;99.90;;;;;;7373310;19;20010;-61
2023/11/24 01:28:58;;;;;;;15.55;3.38;;;6.40;99.90;;;;;;7373577;19;20659;-60
2023/11/24 01:31:30;;;;;;;24.75;5.18;;;6.40;99.90;;;;;;7371707;19;20017;-61
2023/11/24 01:33:57;;;;;;;15.55;3.92;;;6.40;99.90;;;;;;7372077;19;20466;-63
2023/11/24 01:36:25;;;;;;;13.80;3.17;;;6.50;99.90;;;;;;7370767;19;20089;-63
2023/11/24 01:38:52;;;;;;;17.50;3.30;;;6.50;99.90;;;;;;7371074;19;20014;-63
2023/11/24 01:41:18;;;;;;;14.15;3.25;;;6.50;99.90;;;;;;7370653;19;20006;-61
2023/11/24 01:44:01;;;;;;;12.45;2.92;;;6.60;99.90;;;;;;7370344;19;20033;-60
2023/11/24 01:46:28;;;;;;;12.57;2.80;;;6.70;99.90;;;;;;7373328;19;20588;-60
2023/11/24 01:48:57;;;;;;;13.88;2.58;;;6.70;99.90;;;;;;7369460;19;20014;-60
2023/11/24 01:51:24;;;;;;;12.18;2.60;;;6.70;99.90;;;;;;7369148;19;20022;-60
2023/11/24 01:53:51;;;;;;;18.10;3.22;;;6.60;99.90;;;;;;7371767;19;20109;-60
2023/11/24 01:56:19;;;;;;;13.23;2.55;;;6.60;99.90;;;;;;7372152;19;20466;-60
2023/11/24 01:58:45;;;;;;;11.43;2.63;;;6.50;99.90;;;;;;7375411;19;20018;-60
2023/11/24 02:01:13;;;;;;;15.30;2.72;;;6.50;99.90;;;;;;7381568;19;20023;-60
2023/11/24 02:03:40;;;;;;;17.15;2.60;;;6.40;99.90;;;;;;7377807;19;20026;-61
2023/11/24 02:06:27;;;;;;;12.20;3.38;;;6.40;99.90;;;;;;7374719;19;20022;-60
2023/11/24 02:08:54;;;;;;;20.42;3.40;;;6.30;99.90;;;;;;7376577;19;20022;-61
2023/11/24 02:11:21;;;;;;;16.77;3.63;;;6.30;99.90;;;;;;7376969;19;20498;-60
2023/11/24 02:13:49;;;;;;;15.35;3.25;;;6.30;99.90;;;;;;7375486;19;20064;-60
2023/11/24 02:16:16;;;;;;;15.43;3.08;;;6.20;99.90;;;;;;7376313;19;20019;-60
2023/11/24 02:19:02;;;;;;;15.82;2.92;;;6.20;99.90;;;;;;7374934;19;20015;-61
2023/11/24 02:21:29;;;;;;;19.95;3.83;;;6.20;99.90;;;;;;7376195;19;20018;-64
2023/11/24 02:24:05;;;;;;;16.60;3.17;;;6.20;99.90;;;;;;7376986;19;20014;-61
2023/11/24 02:26:31;;;;;;;19.10;3.53;;;6.10;99.90;;;;;;7372494;19;20613;-60
2023/11/24 02:28:58;;;;;;;16.73;2.90;;;6.10;99.90;;;;;;7376100;19;20039;-60
2023/11/24 02:31:44;;;;;;;12.57;2.75;;;6.00;99.90;;;;;;7368797;19;20030;-65
2023/11/24 02:34:31;;;;;;;16.80;3.13;;;6.00;99.90;;;;;;7376222;19;20014;-64
2023/11/24 02:36:58;;;;;;;18.75;2.72;;;6.00;99.90;;;;;;7374655;19;20047;-63
2023/11/24 02:39:25;;;;;;;12.82;2.42;;;5.90;99.90;;;;;;7374723;19;20018;-64
2023/11/24 02:41:51;;;;;;;11.65;2.75;;;6.00;99.90;;;;;;7375839;19;20025;-63
2023/11/24 02:44:18;;;;;;;14.52;2.63;;;5.90;99.90;;;;;;7376341;19;20346;-64
2023/11/24 02:47:05;;;;;;;11.13;2.28;;;5.90;99.90;;;;;;7374976;19;20014;-63
2023/11/24 02:49:35;;;;;;;16.95;3.67;;;5.90;99.90;;;;;;7375180;19;20074;-63
2023/11/24 02:52:04;;;;;;;13.05;2.60;;;6.00;99.90;;;;;;7374183;19;20035;-63
2023/11/24 02:54:52;;;;;;;14.95;2.50;;;6.00;99.90;;;;;;7374516;19;20931;-63
2023/11/24 02:57:19;;;;;;;11.80;2.50;;;6.00;99.90;;;;;;7372342;19;20019;-63
2023/11/24 02:59:46;;;;;;;16.52;2.65;;;5.90;99.90;;;;;;7373970;19;20022;-63
2023/11/24 03:02:12;;;;;;;13.55;2.60;;;5.90;99.90;;;;;;7375324;19;20018;-63
2023/11/24 03:04:38;;;;;;;12.27;2.03;;;5.90;99.90;;;;;;7373840;19;20098;-63
2023/11/24 03:07:05;;;;;;;11.90;1.90;;;6.00;99.90;;;;;;7373667;19;20073;-64
2023/11/24 03:09:32;;;;;;;8.05;2.08;;;6.10;99.90;;;;;;7371238;19;20403;-61
2023/11/24 03:11:58;;;;;;;13.70;2.40;;;6.10;99.90;;;;;;7377591;19;20023;-60
2023/11/24 03:14:25;;;;;;;15.85;2.75;;;6.10;99.90;;;;;;7374582;19;20090;-60
2023/11/24 03:16:51;;;;;;;10.60;2.10;;;6.20;99.90;;;;;;7373912;19;20030;-64
2023/11/24 03:19:18;;;;;;;14.90;2.25;;;6.10;99.90;;;;;;7372697;19;20017;-65
2023/11/24 03:21:45;;;;;;;15.55;2.58;;;6.10;99.90;;;;;;7374760;19;20018;-63
2023/11/24 03:24:11;;;;;;;10.27;2.17;;;6.00;99.90;;;;;;7374382;19;20100;-63
2023/11/24 03:26:37;;;;;;;11.32;2.40;;;5.90;99.90;;;;;;7373209;19;20037;-60
2023/11/24 03:29:05;;;;;;;11.40;2.10;;;5.90;99.90;;;;;;7375283;19;20018;-60
2023/11/24 03:31:31;;;;;;;13.55;2.28;;;5.80;99.90;;;;;;7376255;19;20018;-60
2023/11/24 03:33:59;;;;;;;11.98;2.00;;;5.80;99.90;;;;;;7374359;19;20018;-60
2023/11/24 03:36:25;;;;;;;12.25;2.22;;;5.80;99.90;;;;;;7376113;19;20038;-60
2023/11/24 03:38:53;;;;;;;12.20;2.17;;;5.80;99.90;;;;;;7373253;19;20034;-60
2023/11/24 03:41:41;;;;;;;12.02;2.05;;;5.80;99.90;;;;;;7375261;19;20030;-60
2023/11/24 03:44:07;;;;;;;12.73;2.00;;;5.70;99.90;;;;;;7375255;19;20017;-60
2023/11/24 03:46:34;;;;;;;13.20;2.22;;;5.60;99.90;;;;;;7375333;19;20880;-60
2023/11/24 03:49:00;;;;;;;8.65;1.90;;;5.60;99.90;;;;;;7373682;19;20022;-60
2023/11/24 03:51:26;;;;;;;13.00;1.88;;;5.60;99.90;;;;;;7372566;19;20069;-60
2023/11/24 03:53:52;;;;;;;8.80;2.00;;;5.60;99.90;;;;;;7373841;19;20014;-60
2023/11/24 03:56:18;;;;;;;10.82;2.38;;;5.60;99.90;;;;;;7374734;19;20019;-60
2023/11/24 03:58:45;;;;;;;14.90;3.38;;;5.60;99.90;;;;;;7372754;19;20046;-61
2023/11/24 04:01:15;;;;;;;12.95;2.35;;;5.60;99.90;;;;;;7373949;19;20022;-61
2023/11/24 04:03:46;;;;;;;15.32;2.78;;;5.60;99.90;;;;;;7375673;19;20029;-60
2023/11/24 04:06:13;;;;;;;16.25;2.55;;;5.70;99.90;;;;;;7372952;19;20506;-63
2023/11/24 04:08:39;;;;;;;15.18;2.60;;;5.70;99.90;;;;;;7372762;19;20042;-63
2023/11/24 04:11:07;;;;;;;16.65;2.08;;;5.80;99.90;;;;;;7371178;19;20022;-63
2023/11/24 04:13:33;;;;;;;13.73;2.58;;;5.90;99.90;;;;;;7375599;19;20078;-63
2023/11/24 04:16:01;;;;;;;8.40;1.83;;;5.80;99.90;;;;;;7372224;19;20087;-63
2023/11/24 04:18:27;;;;;;;9.90;1.77;;;5.80;99.90;;;;;;7370471;19;20778;-63
2023/11/24 04:20:53;;;;;;;11.35;2.05;;;5.80;99.90;;;;;;7373442;19;20025;-63
2023/11/24 04:23:20;;;;;;;14.02;2.60;;;5.60;99.90;;;;;;7371476;19;20699;-63
2023/11/24 04:25:46;;;;;;;12.23;2.40;;;5.60;99.90;;;;;;7372660;19;20776;-64
2023/11/24 04:28:32;;;;;;;13.68;2.40;;;5.50;99.90;;;;;;7371978;19;20050;-60
2023/11/24 04:30:58;;;;;;;11.55;2.15;;;5.40;99.90;;;;;;7373203;19;20010;-60
2023/11/24 04:33:25;;;;;;;13.43;2.15;;;5.30;99.90;;;;;;7372343;19;20516;-60
2023/11/24 04:35:55;;;;;;;14.25;2.53;;;5.20;99.90;;;;;;7370813;19;20032;-60
2023/11/24 04:38:21;;;;;;;12.30;2.10;;;5.20;99.90;;;;;;7372891;19;20746;-60
2023/11/24 04:40:48;;;;;;;12.30;3.05;;;5.10;99.90;;;;;;7370954;19;20052;-60
2023/11/24 04:43:14;;;;;;;12.07;2.15;;;5.10;99.90;;;;;;7372069;19;20026;-60
2023/11/24 04:45:40;;;;;;;13.55;2.85;;;5.10;99.90;;;;;;7373041;19;20531;-60
2023/11/24 04:48:12;;;;;;;15.73;2.58;;;5.20;99.90;;;;;;7373803;19;20006;-60
2023/11/24 04:50:38;;;;;;;13.27;2.33;;;5.20;99.90;;;;;;7369204;19;20022;-60
2023/11/24 04:53:04;;;;;;;9.95;2.28;;;5.30;99.90;;;;;;7372666;19;20023;-60
2023/11/24 04:55:30;;;;;;;12.82;2.28;;;5.40;99.90;;;;;;7369515;19;20027;-60
2023/11/24 04:57:57;;;;;;;10.52;2.17;;;5.50;99.90;;;;;;7373304;19;20019;-63
2023/11/24 05:00:23;;;;;;;11.45;1.80;;;5.50;99.90;;;;;;7368936;19;20018;-63
2023/11/24 05:02:49;;;;;;;9.75;1.88;;;5.50;99.90;;;;;;7371200;19;20018;-63
2023/11/24 05:05:18;;;;;;;7.15;1.80;;;5.50;99.90;;;;;;7370773;19;20018;-64
2023/11/24 05:07:44;;;;;;;8.98;2.10;;;5.40;99.90;;;;;;7371835;19;20453;-63
2023/11/24 05:10:11;;;;;;;9.68;1.65;;;5.30;99.90;;;;;;7372251;19;20386;-63
2023/11/24 05:12:38;;;;;;;9.52;1.55;;;5.30;99.90;;;;;;7373013;19;20038;-63
2023/11/24 05:15:08;;;;;;;8.85;1.50;;;5.20;99.90;;;;;;7371135;19;20018;-63
2023/11/24 05:17:35;;;;;;;8.90;1.50;;;5.10;99.90;;;;;;7369518;19;20422;-64
2023/11/24 05:20:03;;;;;;;7.80;1.70;;;5.00;99.90;;;;;;7369307;19;20257;-59
2023/11/24 05:22:29;;;;;;;7.13;1.60;;;5.00;99.90;;;;;;7372081;19;20025;-60
2023/11/24 05:24:55;;;;;;;7.10;2.05;;;4.90;99.90;;;;;;7372243;19;20011;-60
2023/11/24 05:27:22;;;;;;;11.82;2.13;;;4.90;99.90;;;;;;7373587;19;20022;-63
2023/11/24 05:29:48;;;;;;;5.97;1.27;;;4.80;99.90;;;;;;7371971;19;20018;-63
2023/11/24 05:32:15;;;;;;;8.38;1.67;;;4.80;99.90;;;;;;7373781;19;20015;-64
2023/11/24 05:34:41;;;;;;;7.50;1.17;;;4.70;99.90;;;;;;7378722;19;20021;-59
2023/11/24 05:37:07;;;;;;;8.55;1.55;;;4.60;99.90;;;;;;7379686;19;20014;-60
2023/11/24 05:39:37;;;;;;;11.52;1.50;;;4.60;99.90;;;;;;7378897;19;20755;-58
2023/11/24 05:42:04;;;;;;;10.05;2.50;;;4.60;99.90;;;;;;7373266;19;20035;-60
2023/11/24 05:44:31;;;;;;;8.48;2.17;;;4.70;99.90;;;;;;7382255;19;21047;-60
2023/11/24 05:46:57;;;;;;;8.05;1.35;;;4.70;99.90;;;;;;7378505;19;20025;-62
2023/11/24 05:49:23;;;;;;;6.90;2.00;;;4.80;99.90;;;;;;7378670;19;20039;-61
2023/11/24 05:51:50;;;;;;;12.90;2.08;;;4.90;99.90;;;;;;7377194;19;20010;-61
2023/11/24 05:54:16;;;;;;;10.85;1.63;;;4.90;99.90;;;;;;7378527;19;20036;-60
2023/11/24 05:56:42;;;;;;;10.25;2.13;;;5.00;99.90;;;;;;7379603;19;20018;-61
2023/11/24 05:59:09;;;;;;;11.05;1.77;;;5.10;99.90;;;;;;7381751;19;20043;-60
2023/11/24 06:01:36;;;;;;;9.32;1.83;;;5.10;99.90;;;;;;7374013;19;20018;-59
2023/11/24 06:04:03;;;;;;;7.55;1.45;;;5.10;99.90;;;;;;7381936;19;20719;-60
2023/11/24 06:06:29;;;;;;;14.48;1.90;;;5.10;99.90;;;;;;7380135;19;20082;-61
2023/11/24 06:08:55;;;;;;;7.30;1.23;;;5.00;99.90;;;;;;7379537;19;20039;-61
2023/11/24 06:11:21;;;;;;;10.50;1.55;;;5.00;99.90;;;;;;7375763;19;20318;-61
2023/11/24 06:13:47;;;;;;;10.20;1.30;;;4.90;99.90;;;;;;7379365;19;20035;-61
2023/11/24 06:16:14;;;;;;;7.47;1.20;;;4.90;99.90;;;;;;7374387;19;20014;-61
2023/11/24 06:18:44;;;;;;;7.80;1.55;;;4.90;99.90;;;;;;7375441;19;20122;-60
2023/11/24 06:21:13;;;;;;;7.28;1.33;;;5.00;99.90;;;;;;7377886;19;20646;-62
2023/11/24 06:23:39;;;;;;;8.25;1.40;;;5.00;99.90;;;;;;7373395;19;20551;-61
2023/11/24 06:26:09;;;;;;;10.02;1.70;;;5.00;99.90;;;;;;7374872;19;20317;-60
2023/11/24 06:28:36;;;;;;;7.13;1.05;;;5.10;99.90;;;;;;7376274;19;20058;-61
2023/11/24 06:31:03;;;;;;;6.07;1.33;;;5.10;99.90;;;;;;7373722;19;20022;-61
2023/11/24 06:33:29;;;;;;;7.00;1.48;;;5.20;99.90;;;;;;7376171;19;20114;-60
2023/11/24 06:35:55;;;;;;;3.78;1.02;;;5.10;99.90;;;;;;7372955;19;20023;-60
2023/11/24 06:38:22;;;;;;;7.95;1.65;;;5.20;99.90;;;;;;7373207;19;20026;-59
2023/11/24 06:40:48;;;;;;;6.05;1.27;;;5.20;99.90;;;;;;7376410;19;20022;-60
2023/11/24 06:43:15;;;;;;;4.80;0.95;;;5.20;99.90;;;;;;7370955;19;20035;-59
2023/11/24 06:45:44;;;;;;;8.85;1.13;;;5.20;99.90;;;;;;7375233;19;20019;-59
2023/11/24 06:48:10;;;;;;;5.00;1.42;;;5.20;99.90;;;;;;7375887;19;20019;-60
2023/11/24 06:50:39;;;;;;;4.88;1.33;;;5.20;99.90;;;;;;7375209;19;20022;-60
2023/11/24 06:53:06;;;;;;;8.07;1.38;;;5.10;99.90;;;;;;7374829;19;20046;-62
2023/11/24 06:55:33;;;;;;;10.10;1.48;;;5.10;99.90;;;;;;7374799;19;20656;-62
2023/11/24 06:57:59;;;;;;;5.68;1.30;;;5.10;99.90;;;;;;7376907;19;20525;-62
2023/11/24 07:00:26;;;;;;;7.32;1.40;;;5.10;99.90;;;;;;7373587;19;20089;-62
2023/11/24 07:02:53;;;;;;;9.40;1.70;;;5.00;99.90;;;;;;7375430;19;20018;-62
2023/11/24 07:05:20;;;;;;;13.18;2.05;;;5.00;99.90;;;;;;7376411;19;20019;-62
2023/11/24 07:07:46;;;;;;;11.05;1.65;;;5.00;99.90;;;;;;7376237;19;20038;-62
2023/11/24 07:10:13;;;;;;;11.55;2.47;;;5.00;99.90;;;;;;7377411;19;20015;-61
2023/11/24 07:12:43;;;;;;;11.07;1.90;;;5.00;99.90;;;;;;7372488;19;20022;-63
2023/11/24 07:15:11;;;;;;;10.30;2.53;;;5.00;99.90;;;;;;7374962;19;20018;-63
2023/11/24 07:17:37;;;;;;;13.65;2.85;;;4.90;99.90;;;;;;7375911;19;20021;-61
2023/11/24 07:20:06;;;;;;;25.92;12.07;;;5.00;99.90;;;;;;7372900;19;20034;-62
2023/11/24 07:22:33;;;;;;;7.32;2.08;;;5.00;99.90;;;;;;7372313;19;20081;-64
2023/11/24 07:24:59;;;;;;;9.55;3.83;;;4.90;99.90;;;;;;7374676;19;20060;-63
2023/11/24 07:27:27;;;;;;;12.20;2.08;;;4.90;99.90;;;;;;7374136;19;20052;-63
2023/11/24 07:29:53;;;;;;;12.63;2.83;;;4.90;99.90;;;;;;7371998;19;20074;-64
2023/11/24 07:32:24;;;;;;;13.60;2.92;;;4.90;99.90;;;;;;7375285;19;20025;-64
2023/11/24 07:34:50;;;;;;;8.15;1.98;;;4.90;99.90;;;;;;7376669;19;20025;-64
2023/11/24 07:37:17;;;;;;;14.27;2.28;;;4.90;99.90;;;;;;7375769;19;21026;-64
2023/11/24 07:39:43;;;;;;;10.52;2.13;;;4.90;99.90;;;;;;7372073;19;20019;-64
2023/11/24 07:42:10;;;;;;;11.65;1.92;;;4.90;99.90;;;;;;7373880;19;20019;-64
2023/11/24 07:44:36;;;;;;;11.70;2.92;;;4.80;99.90;;;;;;7375399;19;20029;-64
2023/11/24 07:47:04;;;;;;;10.70;1.88;;;4.80;99.90;;;;;;7376064;19;20064;-64
2023/11/24 07:49:30;;;;;;;7.50;1.70;;;4.80;99.90;;;;;;7373008;19;20093;-64
2023/11/24 07:51:57;;;;;;;14.57;2.60;;;4.80;99.90;;;;;;7376026;19;20385;-63
2023/11/24 07:54:23;;;;;;;10.52;2.50;;;4.80;99.90;;;;;;7370595;19;20015;-63
2023/11/24 07:56:50;;;;;;;10.10;1.95;;;4.80;99.90;;;;;;7374063;19;20056;-62
2023/11/24 07:59:16;;;;;;;10.93;2.53;;;4.80;99.90;;;;;;7376103;19;21022;-59
2023/11/24 08:01:42;;;;;;;8.57;2.35;;;4.80;99.90;;;;;;7374592;19;20029;-59
2023/11/24 08:04:09;;;;;;;12.07;1.92;;;4.80;99.90;;;;;;7377271;19;20018;-58
2023/11/24 08:06:35;;;;;;;8.27;1.42;;;4.90;99.90;;;;;;7371918;19;20026;-63
2023/11/24 08:09:03;;;;;;;8.63;1.98;;;4.90;99.90;;;;;;7375786;19;20011;-59
2023/11/24 08:11:32;;;;;;;15.23;2.33;;;4.90;99.90;;;;;;7375989;19;20011;-59
2023/11/24 08:13:58;;;;;;;13.60;2.13;;;5.00;99.90;;;;;;7373000;19;20022;-59
2023/11/24 08:16:25;;;;;;;12.20;2.55;;;5.00;99.90;;;;;;7374895;19;20054;-59
2023/11/24 08:18:52;;;;;;;12.13;1.90;;;5.00;99.90;;;;;;7376603;19;20021;-59
2023/11/24 08:21:19;;;;;;;10.27;1.85;;;5.00;99.90;;;;;;7375939;19;20374;-61
2023/11/24 08:23:45;;;;;;;9.50;2.08;;;5.00;99.90;;;;;;7373987;19;20088;-59
2023/11/24 08:26:17;;;;;;;9.65;1.95;;;4.90;99.90;;;;;;7374269;19;20025;-59
2023/11/24 08:28:44;;;;;;;14.15;2.42;;;4.90;99.90;;;;;;7373813;19;20054;-63
2023/11/24 08:31:21;;;;;;;19.50;2.75;;;4.80;99.90;;;;;;7374987;19;20022;-63
2023/11/24 08:33:48;;;;;;;8.18;2.10;;;4.90;99.90;;;;;;7370102;19;20066;-64
2023/11/24 08:36:35;;;;;;;12.20;1.90;;;5.00;99.90;;;;;;7371171;19;20115;-64
2023/11/24 08:39:09;;;;;;;12.93;2.30;;;5.20;99.90;;;;;;7373906;19;20023;-63
2023/11/24 08:41:35;;;;;;;11.63;2.17;;;5.40;99.90;;;;;;7370716;19;20022;-63
2023/11/24 08:44:04;;;;;;;10.57;2.22;;;5.60;99.90;;;;;;7372850;19;20407;-63
2023/11/24 08:46:31;;;;;;;12.18;2.80;;;5.70;99.90;;;;;;7370359;19;20090;-64
2023/11/24 08:48:57;;;;;;;11.23;2.38;;;5.80;99.90;;;;;;7373460;19;20743;-63
2023/11/24 08:51:23;;;;;;;9.60;1.80;;;5.90;99.90;;;;;;7373725;19;20029;-63
2023/11/24 08:53:50;;;;;;;11.00;2.10;;;5.90;99.90;;;;;;7371316;19;20026;-64
2023/11/24 08:56:16;;;;;;;14.25;2.38;;;5.90;99.90;;;;;;7374246;19;20029;-63
2023/11/24 08:58:42;;;;;;;11.07;2.25;;;5.80;99.90;;;;;;7370421;19;20386;-63
2023/11/24 09:01:12;;;;;;;14.40;2.85;;;5.70;99.90;;;;;;7374803;19;20181;-64
2023/11/24 09:03:39;;;;;;;11.35;2.42;;;5.70;99.90;;;;;;7371329;19;20019;-63
2023/11/24 09:06:06;;;;;;;16.48;2.25;;;5.60;99.90;;;;;;7375138;19;20046;-63
2023/11/24 09:08:33;;;;;;;13.55;2.60;;;5.60;99.90;;;;;;7374147;19;20986;-63
2023/11/24 09:10:59;;;;;;;7.93;1.90;;;5.70;99.90;;;;;;7376079;19;20018;-60
2023/11/24 09:13:26;;;;;;;11.95;2.47;;;5.80;99.90;;;;;;7373775;19;20646;-60
2023/11/24 09:15:52;;;;;;;11.38;2.25;;;6.20;99.90;;;;;;7374521;19;20018;-60
2023/11/24 09:18:21;;;;;;;9.57;1.90;;;6.40;99.90;;;;;;7371794;19;20018;-60
2023/11/24 09:20:48;;;;;;;11.35;2.53;;;6.50;99.90;;;;;;7374668;19;20018;-63
2023/11/24 09:23:15;;;;;;;9.55;2.22;;;6.40;99.90;;;;;;7371650;19;20015;-66
2023/11/24 09:25:42;;;;;;;11.90;2.25;;;6.40;99.90;;;;;;7372148;19;20354;-63
2023/11/24 09:28:09;;;;;;;7.82;1.88;;;6.50;99.90;;;;;;7372727;19;20018;-64
2023/11/24 09:30:35;;;;;;;15.15;2.33;;;6.50;99.90;;;;;;7371565;19;20022;-63
2023/11/24 09:33:04;;;;;;;14.20;2.42;;;6.40;99.90;;;;;;7372076;19;20022;-59
2023/11/24 09:35:30;;;;;;;16.83;3.00;;;6.30;99.90;;;;;;7373051;19;20340;-59
2023/11/24 09:37:57;;;;;;;12.00;2.33;;;6.20;99.90;;;;;;7371240;19;20046;-59
2023/11/24 09:40:23;;;;;;;14.00;2.70;;;6.60;99.90;;;;;;7371984;19;20011;-59
2023/11/24 09:42:51;;;;;;;11.38;2.58;;;6.90;99.90;;;;;;7367857;19;20035;-59
2023/11/24 09:45:20;;;;;;;12.82;2.65;;;7.40;99.90;;;;;;7371051;19;20014;-59
2023/11/24 09:47:50;;;;;;;11.63;2.38;;;8.10;99.90;;;;;;7372749;19;20033;-59
2023/11/24 09:50:23;;;;;;;12.55;2.97;;;8.30;99.90;;;;;;7373915;19;20039;-59
2023/11/24 09:52:50;;;;;;;15.52;2.78;;;8.20;99.90;;;;;;7374068;19;20023;-59
2023/11/24 09:55:17;;;;;;;15.23;3.45;;;8.30;99.90;;;;;;7373693;19;20029;-59
2023/11/24 09:57:45;;;;;;;14.18;2.72;;;8.30;99.90;;;;;;7372313;19;20019;-64
2023/11/24 10:00:15;;;;;;;12.45;2.70;;;8.40;99.90;;;;;;7373733;19;20026;-64
2023/11/24 10:02:46;;;;;;;13.40;2.50;;;8.40;99.90;;;;;;7365778;19;20056;-64
2023/11/24 10:05:17;;;;;;;17.38;2.70;;;8.40;99.90;;;;;;7369513;19;20350;-68
2023/11/24 10:07:47;;;;;;;20.08;3.17;;;8.70;99.90;;;;;;7367357;19;20019;-64
2023/11/24 10:10:27;;;;;;;16.20;2.88;;;9.00;99.90;;;;;;7370327;19;20047;-65
2023/11/24 10:12:54;;;;;;;16.08;3.70;;;8.70;99.90;;;;;;7370085;19;20026;-64
2023/11/24 10:15:20;;;;;;;13.82;3.15;;;8.30;99.90;;;;;;7368406;19;20027;-64
2023/11/24 10:17:48;;;;;;;16.90;3.55;;;8.10;99.90;;;;;;7367760;19;20109;-64
2023/11/24 10:20:18;;;;;;;14.15;3.10;;;7.70;99.90;;;;;;7375913;19;20478;-64
2023/11/24 10:22:49;;;;;;;13.65;2.80;;;7.30;99.90;;;;;;7374146;19;20015;-64
2023/11/24 10:25:23;;;;;;;15.27;3.25;;;7.10;99.90;;;;;;7379240;19;20074;-64
2023/11/24 10:27:59;;;;;;;11.32;2.33;;;7.10;99.90;;;;;;7377183;19;20379;-65
2023/11/24 10:30:25;;;;;;;13.65;2.72;;;7.00;99.90;;;;;;7372040;19;20046;-64
2023/11/24 10:32:52;;;;;;;9.75;2.10;;;7.00;99.90;;;;;;7372064;19;20029;-64
2023/11/24 10:35:18;;;;;;;9.65;2.20;;;7.10;99.90;;;;;;7372397;19;20516;-64
2023/11/24 10:37:45;;;;;;;11.13;2.60;;;7.30;99.90;;;;;;7379737;19;20026;-65
2023/11/24 10:40:17;;;;;;;11.85;2.58;;;7.70;99.90;;;;;;7382140;19;20041;-64
2023/11/24 10:42:50;;;;;;;18.90;3.38;;;7.90;99.90;;;;;;7374033;19;20094;-64
2023/11/24 10:45:20;;;;;;;12.90;2.80;;;7.70;99.90;;;;;;7376806;19;20022;-65
2023/11/24 10:47:53;;;;;;;14.45;3.78;;;7.60;99.90;;;;;;7381398;19;20838;-59
2023/11/24 10:50:27;;;;;;;11.25;2.53;;;7.30;99.90;;;;;;7377434;19;20022;-60
2023/11/24 10:53:02;;;;;;;19.15;3.25;;;7.10;99.90;;;;;;7378386;19;20082;-59
2023/11/24 10:55:31;;;;;;;17.75;3.40;;;6.90;99.90;;;;;;7376196;19;20616;-59
2023/11/24 10:57:58;;;;;;;15.70;3.03;;;6.80;99.90;;;;;;7375448;19;20014;-59
2023/11/24 11:00:44;;;;;;;16.13;3.78;;;6.70;99.90;;;;;;7376685;19;20495;-60
2023/11/24 11:03:15;;;;;;;15.93;4.68;;;6.60;99.90;;;;;;7375415;19;20055;-60
2023/11/24 11:05:59;;;;;;;12.90;3.47;;;6.80;99.90;;;;;;7375699;19;20047;-60
2023/11/24 11:08:43;;;;;;;16.45;2.83;;;7.10;99.90;;;;;;7377091;19;20010;-59
2023/11/24 11:11:46;;;;;;;18.45;3.00;;;7.50;99.90;;;;;;7377575;19;20062;-59
2023/11/24 11:14:18;;;;;;;14.93;3.83;;;7.80;99.90;;;;;;7375868;19;20129;-60
2023/11/24 11:16:45;;;;;;;11.15;2.38;;;8.30;99.90;;;;;;7374838;19;20015;-60
2023/11/24 11:19:32;;;;;;;15.63;3.22;;;8.10;99.90;;;;;;7370088;19;20566;-59
2023/11/24 11:22:01;;;;;;;14.50;2.58;;;7.90;99.90;;;;;;7372870;19;20019;-59
2023/11/24 11:24:28;;;;;;;9.90;2.15;;;7.70;99.90;;;;;;7372738;19;20018;-59
2023/11/24 11:26:57;;;;;;;9.88;2.00;;;7.30;99.90;;;;;;7375704;19;20070;-59
2023/11/24 11:29:26;;;;;;;13.10;2.00;;;7.30;99.90;;;;;;7373634;19;20789;-59
2023/11/24 11:31:55;;;;;;;10.05;2.25;;;7.20;99.90;;;;;;7376042;19;20022;-59
2023/11/24 11:34:32;;;;;;;11.02;2.20;;;7.20;99.90;;;;;;7375586;19;20014;-59
2023/11/24 11:37:02;;;;;;;11.18;1.83;;;7.20;99.90;;;;;;7375474;19;20022;-59
2023/11/24 11:39:57;;;;;;;10.57;2.33;;;7.30;99.90;;;;;;7374234;19;20822;-59
2023/11/24 11:42:31;;;;;;;13.80;2.85;;;7.80;99.90;;;;;;7373789;19;20026;-59
2023/11/24 11:45:09;;;;;;;12.02;2.42;;;7.90;99.90;;;;;;7373744;19;20026;-64
2023/11/24 11:47:51;;;;;;;10.25;2.85;;;7.90;99.90;;;;;;7375693;19;20022;-64
2023/11/24 11:50:21;;;;;;;10.40;2.75;;;7.60;99.90;;;;;;7375318;19;20674;-64
2023/11/24 11:53:08;;;;;;;16.70;2.85;;;7.40;99.90;;;;;;7373361;19;20041;-65
2023/11/24 11:55:34;;;;;;;16.58;3.22;;;7.30;99.90;;;;;;7372251;19;20026;-65
2023/11/24 11:58:04;;;;;;;14.98;2.45;;;7.20;99.90;;;;;;7374502;19;20666;-59
2023/11/24 12:00:30;;;;;;;11.45;2.13;;;7.00;99.90;;;;;;7373577;19;20014;-59
2023/11/24 12:02:57;;;;;;;14.30;3.05;;;7.20;99.90;;;;;;7370857;19;20115;-65
2023/11/24 12:05:25;;;;;;;13.85;2.67;;;7.80;99.90;;;;;;7374497;19;20022;-64
2023/11/24 12:07:55;;;;;;;13.10;2.42;;;8.80;99.90;;;;;;7372058;19;20018;-65
2023/11/24 12:10:21;;;;;;;10.90;2.35;;;9.70;99.90;;;;;;7373367;19;20019;-65
2023/11/24 12:12:51;;;;;;;10.98;2.70;;;10.20;99.90;;;;;;7370382;19;20023;-65
2023/11/24 12:15:17;;;;;;;13.18;2.60;;;11.00;99.90;;;;;;7370971;19;20383;-65
2023/11/24 12:17:44;;;;;;;11.20;3.45;;;11.40;99.90;;;;;;7370461;19;20398;-65
2023/11/24 12:20:14;;;;;;;16.13;2.88;;;11.40;99.90;;;;;;7370500;19;20631;-65
2023/11/24 12:22:43;;;;;;;11.75;2.97;;;11.60;99.90;;;;;;7368105;19;20026;-64
2023/11/24 12:25:12;;;;;;;13.85;2.55;;;11.40;99.90;;;;;;7371437;19;20034;-65
2023/11/24 12:27:43;;;;;;;13.32;2.97;;;12.50;99.90;;;;;;7371933;19;20099;-66
2023/11/24 12:30:13;;;;;;;16.45;2.97;;;12.80;99.90;;;;;;7375382;19;20585;-59
2023/11/24 12:33:00;;;;;;;12.52;2.65;;;12.60;99.90;;;;;;7372256;19;20091;-59
2023/11/24 12:35:27;;;;;;;15.15;2.95;;;11.50;99.90;;;;;;7375537;19;20019;-60
2023/11/24 12:37:53;;;;;;;12.70;2.70;;;10.20;99.90;;;;;;7372958;19;20010;-59
2023/11/24 12:40:22;;;;;;;12.68;2.42;;;8.60;99.90;;;;;;7376361;19;20318;-59
2023/11/24 12:42:48;;;;;;;5.50;2.10;;;7.70;99.90;;;;;;7372508;19;20024;-59
2023/11/24 12:45:16;;;;;;;8.02;3.30;;;6.80;99.90;;;;;;7370769;19;20054;-59
2023/11/24 12:47:42;;;;;;;9.85;2.60;;;6.20;99.90;;;;;;7374500;19;20874;-58
2023/11/24 12:50:13;;;;;;;8.50;2.42;;;6.00;99.90;;;;;;7370354;19;20035;-58
2023/11/24 12:52:44;;;;;;;10.25;2.53;;;5.70;99.90;;;;;;7373901;19;20026;-59
2023/11/24 12:55:10;;;;;;;7.88;2.35;;;5.60;99.90;;;;;;7371781;19;20556;-61